Date,TemperatureHighF,TemperatureAvgF,TemperatureLowF,DewpointHighF,DewpointAvgF,DewpointLowF,HumidityHigh,HumidityAvg,HumidityLow,PressureMaxIn,PressureMinIn,WindSpeedMaxMPH,WindSpeedAvgMPH,GustSpeedMaxMPH,PrecipitationSumIn
2013-1-1,78.1,72.2,66.3,60.8,58.7,56.3,76,63,53,30.29,30.14,18,3,21,0.00
2013-1-2,81.5,70.3,60.3,66.6,61.9,57.5,91,76,47,30.18,30.07,13,2,13,0.00
2013-1-3,80.4,72.9,66.3,67.5,65.4,63.1,90,78,60,30.22,30.11,12,2,14,0.00
2013-1-4,79.7,71.4,66.0,69.7,66.6,63.4,93,85,66,30.32,30.19,11,2,11,0.00
2013-1-5,75.3,70.2,66.4,69.8,66.8,64.1,93,89,78,30.34,30.25,9,1,10,0.30
2013-1-6,81.5,73.2,65.3,71.8,67.5,63.0,95,83,62,30.29,30.15,17,3,18,0.00
2013-1-7,76.6,71.9,67.7,70.0,67.9,65.3,93,88,74,30.25,30.16,14,2,16,0.10
2013-1-8,80.5,75.7,70.5,73.2,69.9,66.7,91,82,70,30.29,30.17,15,5,17,0.00
2013-1-9,80.8,77.0,73.3,71.8,69.5,67.5,89,78,68,30.38,30.26,19,7,19,0.00
2013-1-10,79.2,76.2,74.6,69.6,65.8,59.9,82,70,54,30.39,30.28,23,7,23,0.00
2013-1-11,78.3,75.3,73.8,69.7,67.0,63.6,85,75,67,30.36,30.24,22,6,22,0.00
2013-1-12,80.3,76.1,73.2,66.9,65.2,62.0,76,69,56,30.28,30.18,15,6,16,0.00
2013-1-13,80.2,75.3,73.0,66.9,63.9,-1.7,79,68,57,30.22,30.16,18,6,20,0.00
2013-1-14,80.4,75.4,70.6,66.9,63.7,61.3,77,67,55,30.27,30.21,15,4,16,0.00
2013-1-15,79.8,74.6,71.1,67.3,64.8,62.1,82,72,60,30.23,30.14,17,5,17,0.10
2013-1-16,71.1,67.5,65.0,62.4,61.9,61.1,87,82,73,30.15,30.14,1,0,1,0.00
2013-1-23,73.8,68.0,61.0,58.6,54.7,49.6,79,63,43,30.39,30.31,13,3,14,0.00
2013-1-24,74.5,65.7,60.0,55.3,51.1,41.2,82,61,39,30.38,30.29,13,2,16,0.00
2013-1-25,75.0,66.4,58.2,58.5,55.1,50.7,81,68,52,30.38,30.27,11,1,11,0.00
2013-1-26,76.3,68.0,59.6,58.8,56.0,50.4,85,67,46,30.36,30.25,15,2,15,0.00
2013-1-27,77.5,69.2,61.1,62.7,58.0,54.5,86,69,47,30.39,30.29,16,3,16,0.00
2013-1-28,79.0,74.4,71.5,67.5,63.0,59.4,80,68,56,30.41,30.32,17,7,17,0.00
2013-1-29,78.0,74.2,72.0,69.8,66.5,63.5,88,77,66,30.33,30.22,16,5,18,0.20
2013-1-30,79.7,74.5,71.5,67.7,64.1,61.3,86,70,59,30.22,30.06,22,5,22,0.00
2013-1-31,71.9,65.9,57.5,69.4,57.4,39.4,92,75,47,30.28,30.04,20,3,20,0.00